Pleasant Point, Maine
Current Conditions -  °F | °C
As of 7:00 PM on Friday 21 Nov 2014 (Local Time) from CYSJ Reporting Station
Scattered Clouds Scattered Clouds  
Wind Chill: 11°   Ceiling: Unl
Heat Index: 23°   Visibility: 15mi
Dew Point:   Wind: 13mph
Humidity: 54%   Direction: 310°NW
Pressure: 30.03"   Gusts: 18mph
Location:  44.9831°N, 67.1057°W
Report Text: CYSJ 220000Z 31011G16KT 15SM FEW050 SCT140 M05/M13 A3003 RMK SC2AC1 SLP177
Loading
Personal Weather Stations






























Interactive Weather Map New forecast layout! Learn more

10-Day Weather Forecast

Advertisements
Track Severe Weather on mobile